Willowbrook, Illinois
Current Conditions -  °F | °C
As of 1:53 PM on Wednesday 28 Jan 2015 (Local Time) from KMDW Reporting Station
Overcast Overcast  
Wind Chill: 26°   Ceiling: 20000
Heat Index: 35°   Visibility: 10mi
Dew Point: 19°   Wind: 14mph
Humidity: 52%   Direction: 160°SSE
Pressure: 30.13"   Gusts: 22mph
Location:  41.755°N, 87.9282°W
Report Text: KMDW 281953Z 16012G19KT 10SM BKN200 OVC250 02/M07 A3013 RMK AO2 SLP216 T00171072
Loading
Personal Weather Stations






























Interactive Weather Map New forecast layout! Learn more

10-Day Weather Forecast

Advertisements
Track Severe Weather on mobile